Yichuan, China
Current Conditions -  °F | °C
As of 11:00 PM on Tuesday 21 Oct 2014 (Local Time) from ZHCC Reporting Station
Haze Haze  
Wind Chill: 55°   Ceiling: 3000
Heat Index: 55°   Visibility: 0.93mi
Dew Point: 52°   Wind: 2mph
Humidity: 88%   Direction: 260°W
Pressure: 30.24"   Gusts: NA
Location:  34.42°N, 112.43°E
Report Text: ZHCC 211500Z 26001MPS 1500 BR OVC030 13/11 Q1024 NOSIG
Loading
Personal Weather Stations






























Interactive Weather Map
Tropical Storm Tracking
New forecast layout! Learn more

10-Day Weather Forecast

Advertisements
Track Severe Weather on mobile